createdAt,value
2019-05-12T00:00:39.390Z,100069.31
2019-05-12T00:03:13.873Z,100067.59
2019-05-12T00:05:48.315Z,100069.81
2019-05-12T00:08:22.262Z,100069.81
2019-05-12T00:10:58.288Z,100066.77
2019-05-12T00:13:32.243Z,100067.18
2019-05-12T00:16:08.636Z,100065.87
2019-05-12T00:18:42.246Z,100062.83
2019-05-12T00:21:17.721Z,100066.36
2019-05-12T00:24:09.424Z,100070.77
2019-05-12T00:26:43.647Z,100080.03
2019-05-12T00:29:18.494Z,100091.45
2019-05-12T00:31:53.050Z,100096.42
2019-05-12T00:34:28.874Z,100101.84
2019-05-12T00:37:02.405Z,100100.12
2019-05-12T00:39:38.249Z,100097.61
2019-05-12T00:42:11.859Z,100058.78
2019-05-12T00:44:47.899Z,100082.92
2019-05-12T00:47:21.427Z,100083.00
2019-05-12T00:49:55.495Z,100082.62
2019-05-12T00:52:28.726Z,100079.30
2019-05-12T00:55:02.897Z,100081.55
2019-05-12T00:57:38.354Z,100071.22
2019-05-12T01:00:12.500Z,100074.30
2019-05-12T01:02:45.754Z,100081.42
2019-05-12T01:05:19.771Z,100085.36
2019-05-12T01:07:52.956Z,100087.13
2019-05-12T01:10:28.535Z,100084.21
2019-05-12T01:13:02.528Z,100082.34
2019-05-12T01:15:37.753Z,100082.53
2019-05-12T01:18:12.136Z,100090.41
2019-05-12T01:20:47.919Z,100093.45
2019-05-12T01:23:23.546Z,100101.66
2019-05-12T01:25:58.546Z,100099.00
2019-05-12T01:28:32.686Z,100104.25
2019-05-12T01:31:08.536Z,100106.39
2019-05-12T01:33:42.493Z,100101.63
2019-05-12T01:36:18.144Z,100105.27
2019-05-12T01:38:52.169Z,100110.63
2019-05-12T01:41:28.491Z,100113.40
2019-05-12T01:44:01.870Z,100113.47
2019-05-12T01:46:35.028Z,100108.71
2019-05-12T01:49:09.121Z,100110.84
2019-05-12T01:51:43.106Z,100125.70
2019-05-12T01:54:18.860Z,100129.22
2019-05-12T01:56:52.508Z,100134.89
2019-05-12T01:59:28.630Z,100134.47
2019-05-12T02:02:02.160Z,100128.84
2019-05-12T02:04:39.572Z,100137.99
2019-05-12T02:07:13.805Z,100130.12
2019-05-12T02:09:48.105Z,100130.12
2019-05-12T02:12:21.944Z,100124.95
2019-05-12T02:14:55.782Z,100128.16
2019-05-12T02:17:30.173Z,100130.94
2019-05-12T02:20:07.730Z,100135.87
2019-05-12T02:22:41.524Z,100139.40
2019-05-12T02:25:14.918Z,100138.98
2019-05-12T02:27:48.815Z,100151.62
2019-05-12T02:30:23.595Z,100150.79
2019-05-12T02:32:59.132Z,100143.40
2019-05-12T02:35:35.450Z,100146.51
2019-05-12T02:38:08.739Z,100147.48
2019-05-12T02:40:44.675Z,100145.82
2019-05-12T02:43:16.866Z,100145.86
2019-05-12T02:45:50.766Z,100167.25
2019-05-12T02:48:24.734Z,100168.60
2019-05-12T02:50:57.826Z,100168.09
2019-05-12T02:53:34.928Z,100167.98
2019-05-12T02:56:09.916Z,100159.66
2019-05-12T02:58:45.396Z,100162.29
2019-05-12T03:01:24.388Z,100176.27
2019-05-12T03:04:00.988Z,100180.62
2019-05-12T03:06:36.628Z,100180.55
2019-05-12T03:09:10.587Z,100182.17
2019-05-12T03:11:46.103Z,100179.48
2019-05-12T03:14:20.193Z,100178.52
2019-05-12T03:16:54.156Z,100189.84
2019-05-12T03:19:28.056Z,100188.11
2019-05-12T03:22:04.800Z,100191.05
2019-05-12T03:24:37.463Z,100201.92
2019-05-12T03:27:14.602Z,100212.80
2019-05-12T03:29:47.097Z,100212.80
2019-05-12T03:32:20.131Z,100225.86
2019-05-12T03:34:57.851Z,100226.65
2019-05-12T03:37:31.293Z,100233.18
2019-05-12T03:40:07.272Z,100237.50
2019-05-12T03:42:44.198Z,100238.73
2019-05-12T03:45:16.928Z,100231.62
2019-05-12T03:47:50.008Z,100225.89
2019-05-12T03:50:24.533Z,100224.91
2019-05-12T03:52:58.514Z,100223.19
2019-05-12T03:55:38.044Z,100231.44
2019-05-12T03:58:08.141Z,100234.00
2019-05-12T04:00:44.694Z,100238.73
2019-05-12T04:03:18.876Z,100237.80
2019-05-12T04:05:55.373Z,100246.05
2019-05-12T04:08:28.701Z,100251.23
2019-05-12T04:11:05.287Z,100254.62
2019-05-12T04:13:38.233Z,100254.99
2019-05-12T04:16:12.428Z,100260.09
2019-05-12T04:18:46.249Z,100263.03
2019-05-12T04:21:24.083Z,100263.30
2019-05-12T04:23:57.204Z,100260.56
2019-05-12T04:26:31.052Z,100263.94
2019-05-12T04:29:05.357Z,100263.34
2019-05-12T04:31:39.428Z,100260.97
2019-05-12T04:34:17.903Z,100266.94
2019-05-12T04:36:49.022Z,100272.04
2019-05-12T04:39:25.099Z,100274.97
2019-05-12T04:41:57.597Z,100277.93
2019-05-12T04:44:34.558Z,100286.60
2019-05-12T04:47:07.054Z,100284.23
2019-05-12T04:49:44.986Z,100289.82
2019-05-12T04:52:17.519Z,100291.39
2019-05-12T04:54:51.385Z,100294.77
2019-05-12T04:57:25.760Z,100305.41
2019-05-12T04:59:59.712Z,100302.50
2019-05-12T05:02:36.384Z,100311.92
2019-05-12T05:05:09.579Z,100316.60
2019-05-12T05:07:44.709Z,100324.30
2019-05-12T05:10:19.007Z,100322.44
2019-05-12T05:12:54.241Z,100318.86
2019-05-12T05:15:28.218Z,100334.45
2019-05-12T05:18:06.062Z,100327.33
2019-05-12T05:20:37.942Z,100327.24
2019-05-12T05:23:11.130Z,100326.26
2019-05-12T05:25:45.037Z,100328.30
2019-05-12T05:28:18.928Z,100333.08
2019-05-12T05:30:53.543Z,100329.64
2019-05-12T05:33:27.979Z,100331.98
2019-05-12T05:36:03.493Z,100340.44
2019-05-12T05:38:37.725Z,100345.45
2019-05-12T05:41:10.854Z,100347.39
2019-05-12T05:43:56.387Z,100343.62
2019-05-12T05:46:25.473Z,100347.89
2019-05-12T05:48:59.404Z,100353.71
2019-05-12T05:51:33.659Z,100347.16
2019-05-12T05:54:07.880Z,100358.30
2019-05-12T05:56:48.554Z,100361.42
2019-05-12T05:59:15.766Z,100366.72
2019-05-12T06:01:52.479Z,100360.23
2019-05-12T06:04:25.101Z,100368.27
2019-05-12T06:06:59.055Z,100370.45
2019-05-12T06:09:33.939Z,100377.36
2019-05-12T06:12:09.979Z,100360.98
2019-05-12T06:14:46.634Z,100372.80
2019-05-12T06:17:19.182Z,100375.42
2019-05-12T06:19:53.849Z,100375.70
2019-05-12T06:22:29.000Z,100378.78
2019-05-12T06:25:04.825Z,100380.13
2019-05-12T06:27:38.357Z,100392.84
2019-05-12T06:30:14.854Z,100393.13
2019-05-12T06:32:51.833Z,100393.53
2019-05-12T06:35:24.756Z,100397.55
2019-05-12T06:38:01.843Z,100403.34
2019-05-12T06:40:40.409Z,100407.03
2019-05-12T06:43:09.956Z,100404.05
2019-05-12T06:45:45.674Z,100409.89
2019-05-12T06:48:25.765Z,100411.73
2019-05-12T06:50:55.270Z,100412.31
2019-05-12T06:53:31.071Z,100414.37
2019-05-12T06:56:09.356Z,100412.90
2019-05-12T06:58:40.312Z,100427.05
2019-05-12T07:01:19.228Z,100422.14
2019-05-12T07:03:50.041Z,100426.25
2019-05-12T07:06:24.805Z,100439.62
2019-05-12T07:09:06.443Z,100440.19
2019-05-12T07:11:42.428Z,100451.43
2019-05-12T07:14:18.859Z,100449.77
2019-05-12T07:16:46.737Z,100457.06
2019-05-12T07:19:24.965Z,100450.23
2019-05-12T07:21:59.836Z,100451.70
2019-05-12T07:24:34.135Z,100457.18
2019-05-12T07:27:09.314Z,100460.27
2019-05-12T07:29:43.661Z,100458.47
2019-05-12T07:32:21.683Z,100465.70
2019-05-12T07:34:54.374Z,100465.80
2019-05-12T07:37:30.061Z,100471.02
2019-05-12T07:40:07.881Z,100479.27
2019-05-12T07:42:43.969Z,100481.39
2019-05-12T07:45:22.179Z,100482.19
2019-05-12T07:47:54.234Z,100486.79
2019-05-12T07:50:28.094Z,100495.80
2019-05-12T07:53:04.146Z,100494.70
2019-05-12T07:55:39.511Z,100498.55
2019-05-12T07:58:17.830Z,100510.17
2019-05-12T08:00:53.878Z,100522.38
2019-05-12T08:03:24.466Z,100520.12
2019-05-12T08:06:01.634Z,100527.08
2019-05-12T08:08:34.073Z,100532.08
2019-05-12T08:11:09.228Z,100530.95
2019-05-12T08:13:43.825Z,100537.20
2019-05-12T08:16:19.474Z,100543.77
2019-05-12T08:18:53.548Z,100548.14
2019-05-12T08:21:27.306Z,100553.05
2019-05-12T08:24:01.180Z,100551.02
2019-05-12T08:26:34.986Z,100558.70
2019-05-12T08:29:10.432Z,100563.97
2019-05-12T08:31:44.549Z,100570.15
2019-05-12T08:34:18.408Z,100567.58
2019-05-12T08:36:56.905Z,100567.83
2019-05-12T08:39:27.907Z,100569.08
2019-05-12T08:42:04.063Z,100581.71
2019-05-12T08:44:40.621Z,100577.97
2019-05-12T08:47:15.207Z,100583.63
2019-05-12T08:49:55.416Z,100589.11
2019-05-12T08:52:24.856Z,100590.78
2019-05-12T08:54:58.686Z,100599.77
2019-05-12T08:57:40.537Z,100604.68
2019-05-12T09:00:08.931Z,100608.20
2019-05-12T09:02:48.731Z,100611.45
2019-05-12T09:05:18.419Z,100615.87
2019-05-12T09:07:54.150Z,100622.30
2019-05-12T09:10:28.114Z,100627.91
2019-05-12T09:13:04.063Z,100626.70
2019-05-12T09:15:37.604Z,100626.20
2019-05-12T09:18:11.607Z,100629.98
2019-05-12T09:20:51.354Z,100635.38
2019-05-12T09:23:21.121Z,100643.87
2019-05-12T09:25:57.158Z,100638.50
2019-05-12T09:28:44.322Z,100646.23
2019-05-12T09:31:07.275Z,100653.53
2019-05-12T09:33:41.218Z,100655.48
2019-05-12T09:36:19.927Z,100663.83
2019-05-12T09:38:53.622Z,100660.55
2019-05-12T09:41:26.509Z,100665.66
2019-05-12T09:44:01.868Z,100663.36
2019-05-12T09:46:37.714Z,100673.38
2019-05-12T09:49:14.127Z,100674.42
2019-05-12T09:51:48.036Z,100673.83
2019-05-12T09:54:27.797Z,100671.37
2019-05-12T09:56:59.610Z,100680.27
2019-05-12T09:59:34.521Z,100685.88
2019-05-12T10:02:15.527Z,100690.00
2019-05-12T10:04:50.248Z,100692.13
2019-05-12T10:07:23.162Z,100692.75
2019-05-12T10:09:59.201Z,100699.12
2019-05-12T10:12:38.794Z,100705.59
2019-05-12T10:15:13.506Z,100699.21
2019-05-12T10:17:48.750Z,100706.73
2019-05-12T10:20:24.168Z,100699.59
2019-05-12T10:22:59.197Z,100703.61
2019-05-12T10:25:34.161Z,100709.70
2019-05-12T10:28:15.355Z,100710.06
2019-05-12T10:30:47.046Z,100709.80
2019-05-12T10:33:23.263Z,100703.77
2019-05-12T10:35:59.336Z,100712.43
2019-05-12T10:38:34.352Z,100713.42
2019-05-12T10:41:08.840Z,100719.86
2019-05-12T10:43:43.325Z,100716.52
2019-05-12T10:46:23.747Z,100721.22
2019-05-12T10:48:54.121Z,100726.13
2019-05-12T10:51:28.049Z,100720.78
2019-05-12T10:54:12.087Z,100727.88
2019-05-12T10:56:37.769Z,100733.12
2019-05-12T10:59:13.358Z,100734.41
2019-05-12T11:01:49.181Z,100728.48
2019-05-12T11:04:35.848Z,100735.34
2019-05-12T11:06:59.328Z,100737.07
2019-05-12T11:09:34.605Z,100739.78
2019-05-12T11:12:09.112Z,100742.10
2019-05-12T11:14:43.891Z,100744.88
2019-05-12T11:17:18.213Z,100751.27
2019-05-12T11:19:54.122Z,100755.64
2019-05-12T11:22:28.298Z,100752.84
2019-05-12T11:25:04.339Z,100752.84
2019-05-12T11:27:38.244Z,100757.22
2019-05-12T11:30:13.247Z,100758.29
2019-05-12T11:32:47.289Z,100762.78
2019-05-12T11:35:23.530Z,100771.27
2019-05-12T11:37:57.099Z,100773.53
2019-05-12T11:40:31.372Z,100772.87
2019-05-12T11:43:06.006Z,100775.78
2019-05-12T11:45:40.167Z,100789.11
2019-05-12T11:48:14.374Z,100786.55
2019-05-12T11:50:51.301Z,100787.47
2019-05-12T11:53:31.205Z,100783.68
2019-05-12T11:56:06.993Z,100788.92
2019-05-12T11:58:41.367Z,100799.94
2019-05-12T12:01:15.304Z,100800.17
2019-05-12T12:03:51.511Z,100810.60
2019-05-12T12:06:25.813Z,100806.28
2019-05-12T12:09:00.183Z,100811.86
2019-05-12T12:11:34.793Z,100805.64
2019-05-12T12:14:10.611Z,100815.05
2019-05-12T12:16:49.995Z,100817.05
2019-05-12T12:19:26.196Z,100807.61
2019-05-12T12:21:56.878Z,100820.34
2019-05-12T12:24:31.591Z,100812.10
2019-05-12T12:27:06.287Z,100814.91
2019-05-12T12:29:40.967Z,100820.92
2019-05-12T12:32:20.154Z,100817.82
2019-05-12T12:34:54.457Z,100832.30
2019-05-12T12:37:29.556Z,100823.94
2019-05-12T12:40:04.860Z,100826.98
2019-05-12T12:42:44.201Z,100841.05
2019-05-12T12:45:16.377Z,100831.23
2019-05-12T12:47:50.665Z,100833.30
2019-05-12T12:50:30.876Z,100836.26
2019-05-12T12:53:06.788Z,100836.02
2019-05-12T12:55:47.604Z,100837.52
2019-05-12T12:58:31.304Z,100840.52
2019-05-12T13:01:08.410Z,100841.43
2019-05-12T13:03:59.313Z,100854.78
2019-05-12T13:06:34.585Z,100847.80
2019-05-12T13:09:18.240Z,100851.19
2019-05-12T13:11:46.159Z,100854.58
2019-05-12T13:14:23.180Z,100854.37
2019-05-12T13:16:57.147Z,100858.03
2019-05-12T13:19:33.245Z,100863.61
2019-05-12T13:22:09.030Z,100863.20
2019-05-12T13:24:43.990Z,100867.03
2019-05-12T13:27:19.225Z,100868.34
2019-05-12T13:29:53.760Z,100867.31
2019-05-12T13:32:32.069Z,100874.08
2019-05-12T13:35:04.233Z,100872.23
2019-05-12T13:37:38.439Z,100876.36
2019-05-12T13:40:12.434Z,100880.22
2019-05-12T13:42:46.283Z,100877.41
2019-05-12T13:45:24.276Z,100879.02
2019-05-12T13:47:59.529Z,100885.52
2019-05-12T13:50:34.016Z,100893.69
2019-05-12T13:53:10.153Z,100889.09
2019-05-12T13:55:47.516Z,100888.97
2019-05-12T13:58:20.198Z,100894.28
2019-05-12T14:01:10.489Z,100891.70
2019-05-12T14:03:30.589Z,100899.88
2019-05-12T14:06:04.846Z,100900.88
2019-05-12T14:08:38.942Z,100896.18
2019-05-12T14:11:12.723Z,100892.20
2019-05-12T14:13:46.729Z,100899.19
2019-05-12T14:16:20.572Z,100899.39
2019-05-12T14:18:56.904Z,100900.31
2019-05-12T14:21:33.116Z,100901.17
2019-05-12T14:24:05.910Z,100906.30
2019-05-12T14:26:39.514Z,100902.62
2019-05-12T14:29:14.695Z,100908.47
2019-05-12T14:31:55.024Z,100915.09
2019-05-12T14:34:25.066Z,100917.64
2019-05-12T14:37:08.490Z,100916.69
2019-05-12T14:39:34.976Z,100923.61
2019-05-12T14:42:08.983Z,100922.52
2019-05-12T14:44:45.003Z,100923.23
2019-05-12T14:47:19.337Z,100935.69
2019-05-12T14:49:54.399Z,100929.75
2019-05-12T14:52:27.418Z,100927.61
2019-05-12T14:55:03.334Z,100931.53
2019-05-12T14:57:39.208Z,100939.33
2019-05-12T15:00:17.313Z,100932.52
2019-05-12T15:02:48.388Z,100932.47
2019-05-12T15:05:25.347Z,100936.75
2019-05-12T15:08:00.378Z,100946.94
2019-05-12T15:10:34.218Z,100939.95
2019-05-12T15:13:08.208Z,100945.30
2019-05-12T15:15:44.912Z,100953.48
2019-05-12T15:18:19.049Z,100953.88
2019-05-12T15:20:54.323Z,100957.35
2019-05-12T15:23:32.603Z,100954.98
2019-05-12T15:26:04.383Z,100954.57
2019-05-12T15:28:39.300Z,100958.59
2019-05-12T15:31:14.379Z,100966.08
2019-05-12T15:33:48.899Z,100966.61
2019-05-12T15:36:24.487Z,100964.34
2019-05-12T15:38:59.094Z,100971.45
2019-05-12T15:41:33.429Z,100975.11
2019-05-12T15:44:08.178Z,100978.73
2019-05-12T15:46:45.945Z,100979.64
2019-05-12T15:49:16.412Z,100983.43
2019-05-12T15:51:53.984Z,100982.30
2019-05-12T15:54:26.256Z,100989.19
2019-05-12T15:57:00.346Z,100983.11
2019-05-12T15:59:34.526Z,100986.89
2019-05-12T16:02:14.635Z,100991.49
2019-05-12T16:04:48.233Z,100994.95
2019-05-12T16:07:20.231Z,101002.92
2019-05-12T16:09:54.793Z,101006.68
2019-05-12T16:12:29.046Z,101010.23
2019-05-12T16:15:04.543Z,101004.62
2019-05-12T16:17:38.575Z,101012.88
2019-05-12T16:20:14.124Z,101010.16
2019-05-12T16:22:48.534Z,101020.73
2019-05-12T16:25:29.098Z,101025.23
2019-05-12T16:27:58.111Z,101027.12
2019-05-12T16:30:33.977Z,101030.13
2019-05-12T16:33:12.116Z,101037.08
2019-05-12T16:35:44.343Z,101032.29
2019-05-12T16:38:20.066Z,101034.59
2019-05-12T16:40:54.219Z,101035.34
2019-05-12T16:43:29.433Z,101039.39
2019-05-12T16:46:05.834Z,101039.55
2019-05-12T16:48:42.046Z,101030.53
2019-05-12T16:51:15.514Z,101045.97
2019-05-12T16:53:49.317Z,101045.48
2019-05-12T16:56:27.886Z,101044.16
2019-05-12T16:58:59.407Z,101044.45
2019-05-12T17:01:33.567Z,101046.52
2019-05-12T17:04:07.930Z,101048.94
2019-05-12T17:06:45.301Z,101049.09
2019-05-12T17:09:18.466Z,101054.61
2019-05-12T17:11:55.370Z,101058.98
2019-05-12T17:14:28.899Z,101058.91
2019-05-12T17:17:03.797Z,101059.45
2019-05-12T17:19:38.077Z,101056.12
2019-05-12T17:22:13.266Z,101062.66
2019-05-12T17:24:46.036Z,101062.12
2019-05-12T17:27:24.392Z,101059.14
2019-05-12T17:29:55.670Z,101064.88
2019-05-12T17:32:29.832Z,101063.56
2019-05-12T17:35:04.365Z,101062.69
2019-05-12T17:37:41.371Z,101071.56
2019-05-12T17:40:18.367Z,101065.04
2019-05-12T17:42:50.584Z,101070.92
2019-05-12T17:45:24.812Z,101069.72
2019-05-12T17:48:02.804Z,101070.25
2019-05-12T17:50:40.605Z,101073.03
2019-05-12T17:53:14.082Z,101071.34
2019-05-12T17:55:53.978Z,101075.30
2019-05-12T17:58:24.463Z,101067.37
2019-05-12T18:01:00.544Z,101078.35
2019-05-12T18:03:39.236Z,101081.41
2019-05-12T18:06:11.348Z,101086.27
2019-05-12T18:08:46.464Z,101084.55
2019-05-12T18:11:20.922Z,101096.39
2019-05-12T18:14:02.350Z,101098.66
2019-05-12T18:16:34.318Z,101098.76
2019-05-12T18:19:17.682Z,101097.02
2019-05-12T18:21:47.171Z,101111.20
2019-05-12T18:24:24.051Z,101110.97
2019-05-12T18:27:04.510Z,101114.09
2019-05-12T18:29:34.859Z,101118.98
2019-05-12T18:32:09.711Z,101123.05
2019-05-12T18:34:44.622Z,101122.15
2019-05-12T18:37:18.810Z,101118.78
2019-05-12T18:39:53.560Z,101119.20
2019-05-12T18:42:27.434Z,101114.16
2019-05-12T18:45:11.623Z,101116.44
2019-05-12T18:47:38.808Z,101123.05
2019-05-12T18:50:14.126Z,101120.05
2019-05-12T18:52:49.112Z,101118.83
2019-05-12T18:55:23.547Z,101120.19
2019-05-12T18:57:57.548Z,101114.87
2019-05-12T19:00:33.799Z,101117.45
2019-05-12T19:03:09.954Z,101124.49
2019-05-12T19:05:43.964Z,101118.45
2019-05-12T19:08:20.283Z,101113.72
2019-05-12T19:10:53.723Z,101116.91
2019-05-12T19:13:27.815Z,101117.88
2019-05-12T19:16:02.850Z,101126.75
2019-05-12T19:18:37.367Z,101127.30
2019-05-12T19:21:18.367Z,101126.13
2019-05-12T19:23:47.586Z,101128.84
2019-05-12T19:26:21.487Z,101135.02
2019-05-12T19:28:57.852Z,101129.80
2019-05-12T19:31:33.331Z,101133.33
2019-05-12T19:34:18.776Z,101135.97
2019-05-12T19:36:44.902Z,101137.83
2019-05-12T19:39:18.360Z,101137.02
2019-05-12T19:41:51.478Z,101139.66
2019-05-12T19:44:30.357Z,101148.53
2019-05-12T19:47:01.050Z,101141.67
2019-05-12T19:49:46.625Z,101150.00
2019-05-12T19:52:10.852Z,101150.05
2019-05-12T19:54:44.930Z,101156.70
2019-05-12T19:57:21.811Z,101152.42
2019-05-12T19:59:55.751Z,101156.84
2019-05-12T20:02:28.675Z,101145.94
2019-05-12T20:05:04.600Z,101142.94
2019-05-12T20:07:39.026Z,101149.98
2019-05-12T20:10:15.727Z,101146.53
2019-05-12T20:12:48.788Z,101145.69
2019-05-12T20:15:24.380Z,101148.86
2019-05-12T20:17:58.787Z,101142.80
2019-05-12T20:20:36.771Z,101143.27
2019-05-12T20:23:08.651Z,101146.89
2019-05-12T20:25:44.053Z,101148.29
2019-05-12T20:28:17.184Z,101152.63
2019-05-12T20:30:52.330Z,101150.53
2019-05-12T20:33:26.806Z,101158.04
2019-05-12T20:36:00.712Z,101152.37
2019-05-12T20:38:36.649Z,101155.96
2019-05-12T20:41:17.538Z,101145.45
2019-05-12T20:43:45.765Z,101145.45
2019-05-12T20:46:25.781Z,101147.23
2019-05-12T20:48:55.423Z,101149.03
2019-05-12T20:51:28.729Z,101151.66
2019-05-12T20:54:06.554Z,101156.95
2019-05-12T20:56:38.507Z,101150.87
2019-05-12T20:59:13.800Z,101151.34
2019-05-12T21:01:46.386Z,101154.43
2019-05-12T21:04:22.201Z,101155.34
2019-05-12T21:06:55.960Z,101156.27
2019-05-12T21:09:30.533Z,101155.84
2019-05-12T21:12:04.561Z,101160.69
2019-05-12T21:14:44.617Z,101162.00
2019-05-12T21:17:15.840Z,101165.11
2019-05-12T21:19:56.860Z,101162.56
2019-05-12T21:22:26.679Z,101166.51
2019-05-12T21:25:00.322Z,101166.98
2019-05-12T21:27:34.280Z,101172.25
2019-05-12T21:30:11.769Z,101175.77
2019-05-12T21:32:47.093Z,101181.51
2019-05-12T21:35:22.644Z,101175.05
2019-05-12T21:37:55.632Z,101179.42
2019-05-12T21:40:30.743Z,101177.70
2019-05-12T21:43:05.572Z,101178.62
2019-05-12T21:45:38.885Z,101193.52
2019-05-12T21:48:15.225Z,101193.09
2019-05-12T21:50:48.573Z,101191.91
2019-05-12T21:53:23.807Z,101191.08
2019-05-12T21:56:03.854Z,101195.95
2019-05-12T21:58:33.730Z,101195.09
2019-05-12T22:01:09.845Z,101199.11
2019-05-12T22:03:45.985Z,101199.11
2019-05-12T22:06:21.737Z,101201.77
2019-05-12T22:09:01.251Z,101200.88
2019-05-12T22:11:34.582Z,101202.70
2019-05-12T22:14:08.554Z,101198.34
2019-05-12T22:16:46.826Z,101201.05
2019-05-12T22:19:19.768Z,101197.99
2019-05-12T22:21:53.789Z,101201.94
2019-05-12T22:24:33.978Z,101204.19
2019-05-12T22:27:04.791Z,101201.12
2019-05-12T22:29:37.112Z,101190.73
2019-05-12T22:32:11.016Z,101193.41
2019-05-12T22:34:44.916Z,101198.64
2019-05-12T22:37:18.916Z,101202.16
2019-05-12T22:39:53.511Z,101198.67
2019-05-12T22:42:27.526Z,101191.66
2019-05-12T22:45:02.989Z,101192.57
2019-05-12T22:47:37.112Z,101186.91
2019-05-12T22:50:13.623Z,101187.41
2019-05-12T22:52:49.357Z,101182.61
2019-05-12T22:55:27.833Z,101182.67
2019-05-12T22:57:59.231Z,101184.05
2019-05-12T23:00:34.220Z,101181.52
2019-05-12T23:03:11.653Z,101174.57
2019-05-12T23:05:44.336Z,101186.06
2019-05-12T23:08:17.360Z,101180.84
2019-05-12T23:10:53.404Z,101187.02
2019-05-12T23:13:26.777Z,101185.34
2019-05-12T23:16:02.904Z,101185.36
2019-05-12T23:18:36.464Z,101189.34
2019-05-12T23:21:13.326Z,101188.95
2019-05-12T23:23:49.834Z,101185.53
2019-05-12T23:26:21.445Z,101186.00
2019-05-12T23:28:55.255Z,101184.75
2019-05-12T23:31:30.367Z,101186.94
2019-05-12T23:34:06.431Z,101195.28
2019-05-12T23:36:39.850Z,101183.05
2019-05-12T23:39:14.354Z,101181.33
2019-05-12T23:41:48.366Z,101184.46
2019-05-12T23:44:23.986Z,101180.56
2019-05-12T23:46:57.939Z,101170.58
2019-05-12T23:49:33.645Z,101176.27
2019-05-12T23:52:07.400Z,101174.55
2019-05-12T23:54:41.216Z,101176.78
2019-05-12T23:57:15.718Z,101170.27
2019-05-12T23:59:49.908Z,101156.41
